Time;durP1;ratioP1;P1;durP2;ratioP2;P2;SDS_P1;SDS_P2;PMS_P1;PMS_P2;Temp;Humidity;BMP_temperature;BMP_pressure;BME280_temperature;BME280_humidity;BME280_pressure;Samples;Min_cycle;Max_cycle;Signal;HPM_P1;HPM_P2
2022/09/26 00:00:20;;;;;;;6.53;3.63;;;13.50;97.30;;;;;;5048759;28;20289;-90
2022/09/26 00:02:45;;;;;;;9.40;4.10;;;13.50;97.30;;;;;;5052694;28;20253;-89
2022/09/26 00:05:11;;;;;;;4.07;3.40;;;13.50;97.30;;;;;;5049249;28;20716;-89
2022/09/26 00:07:36;;;;;;;7.03;3.30;;;13.50;97.30;;;;;;5039456;28;20188;-89
2022/09/26 00:10:03;;;;;;;8.07;4.97;;;13.50;97.30;;;;;;5033432;28;20283;-89
2022/09/26 00:12:28;;;;;;;10.40;3.77;;;13.50;97.30;;;;;;5043087;28;20180;-89
2022/09/26 00:14:53;;;;;;;8.03;3.93;;;13.50;97.30;;;;;;5050811;28;20503;-89
2022/09/26 00:17:19;;;;;;;2.93;2.73;;;13.40;97.30;;;;;;5040780;28;20227;-89
2022/09/26 00:19:44;;;;;;;7.43;2.80;;;13.40;97.30;;;;;;5047456;28;20586;-88
2022/09/26 00:22:10;;;;;;;3.53;2.70;;;13.40;97.30;;;;;;5051020;28;20187;-89
2022/09/26 00:24:35;;;;;;;3.10;2.50;;;13.40;97.30;;;;;;5034898;28;20196;-89
2022/09/26 00:27:01;;;;;;;4.40;3.63;;;13.40;97.30;;;;;;5030575;28;20184;-88
2022/09/26 00:29:26;;;;;;;5.67;2.90;;;13.40;97.30;;;;;;5044070;28;20185;-89
2022/09/26 00:31:52;;;;;;;7.50;2.57;;;13.40;97.30;;;;;;5042645;28;20183;-89
2022/09/26 00:34:19;;;;;;;5.30;2.60;;;13.40;97.30;;;;;;5050279;28;20585;-89
2022/09/26 00:36:44;;;;;;;4.53;3.00;;;13.40;97.30;;;;;;5050552;28;20210;-89
2022/09/26 00:39:12;;;;;;;4.20;2.37;;;13.40;97.30;;;;;;5036894;28;20418;-89
2022/09/26 00:41:37;;;;;;;6.07;3.53;;;13.40;97.30;;;;;;5039818;28;20662;-89
2022/09/26 00:44:35;;;;;;;4.40;2.20;;;13.40;97.30;;;;;;5047819;28;20450;-88
2022/09/26 00:47:01;;;;;;;3.10;2.53;;;13.40;97.30;;;;;;5048356;28;20191;-89
2022/09/26 00:49:37;;;;;;;8.20;4.73;;;13.40;97.30;;;;;;5031235;28;20865;-89
2022/09/26 00:52:12;;;;;;;7.67;3.83;;;13.40;97.30;;;;;;5047497;28;20183;-89
2022/09/26 00:54:44;;;;;;;5.70;3.07;;;13.40;97.30;;;;;;5051495;28;20422;-89
2022/09/26 00:57:14;;;;;;;7.33;3.03;;;13.40;97.30;;;;;;5044060;28;20929;-90
2022/09/26 00:59:43;;;;;;;4.13;2.93;;;13.40;97.30;;;;;;5059702;28;20418;-89
2022/09/26 01:02:10;;;;;;;5.37;3.40;;;13.30;97.30;;;;;;5049091;28;20884;-89
2022/09/26 01:04:38;;;;;;;3.60;3.30;;;13.30;97.30;;;;;;5035065;28;20486;-90
2022/09/26 01:07:09;;;;;;;2.73;2.53;;;13.30;97.30;;;;;;5041590;28;20422;-89
2022/09/26 01:09:36;;;;;;;3.70;3.30;;;13.20;97.30;;;;;;5042310;28;20415;-90
2022/09/26 01:12:03;;;;;;;6.33;3.67;;;13.20;97.30;;;;;;5040520;28;20423;-89
2022/09/26 01:14:30;;;;;;;6.33;3.40;;;13.20;97.30;;;;;;5048338;28;20497;-90
2022/09/26 01:16:55;;;;;;;6.80;2.57;;;13.20;97.30;;;;;;5049718;28;20446;-88
2022/09/26 01:19:38;;;;;;;2.90;2.70;;;13.20;97.30;;;;;;5049434;28;20791;-89
2022/09/26 01:22:29;;;;;;;6.07;4.07;;;13.20;97.30;;;;;;5040055;28;20176;-89
2022/09/26 01:25:18;;;;;;;7.37;2.80;;;13.20;97.30;;;;;;5036481;28;20462;-89
2022/09/26 01:28:14;;;;;;;4.17;2.80;;;13.20;97.30;;;;;;5045913;28;20506;-88
2022/09/26 01:31:11;;;;;;;1.93;1.83;;;13.10;97.30;;;;;;5043081;28;20418;-89
2022/09/26 01:34:00;;;;;;;6.37;3.77;;;13.10;97.30;;;;;;5021595;28;20865;-89
2022/09/26 01:37:03;;;;;;;5.53;3.77;;;13.10;97.30;;;;;;5054183;28;20434;-90
2022/09/26 01:39:53;;;;;;;2.83;2.63;;;13.10;97.30;;;;;;5038870;28;20422;-89
2022/09/26 01:43:00;;;;;;;3.53;3.03;;;13.10;97.30;;;;;;5046966;28;20431;-89
2022/09/26 01:45:37;;;;;;;3.57;3.13;;;13.10;97.30;;;;;;5029903;28;20473;-89
2022/09/26 01:48:18;;;;;;;6.70;3.50;;;13.10;97.30;;;;;;5046720;28;21074;-88
2022/09/26 01:50:54;;;;;;;6.90;3.90;;;13.00;97.30;;;;;;5029808;28;20861;-89
2022/09/26 01:53:38;;;;;;;4.70;3.40;;;13.00;97.30;;;;;;5044493;28;20512;-89
2022/09/26 01:56:10;;;;;;;5.97;3.40;;;13.00;97.30;;;;;;5047109;28;20487;-89
2022/09/26 01:58:49;;;;;;;3.43;3.20;;;13.00;97.30;;;;;;5039099;28;20422;-89
2022/09/26 02:01:16;;;;;;;5.27;2.80;;;13.00;97.30;;;;;;5035693;28;20422;-88
2022/09/26 02:03:46;;;;;;;1.67;1.67;;;13.00;97.30;;;;;;5049739;28;20458;-89
2022/09/26 02:06:17;;;;;;;3.30;2.00;;;13.00;97.30;;;;;;5048525;28;20466;-89
2022/09/26 02:08:50;;;;;;;3.70;3.00;;;13.00;97.30;;;;;;5049177;28;20410;-89
2022/09/26 02:11:18;;;;;;;5.60;2.73;;;13.00;97.30;;;;;;5035088;28;21054;-89
2022/09/26 02:14:11;;;;;;;3.13;2.70;;;13.00;97.30;;;;;;5049035;28;20426;-89
2022/09/26 02:16:49;;;;;;;2.43;2.23;;;13.00;97.30;;;;;;5045436;28;20584;-90
2022/09/26 02:19:19;;;;;;;2.57;1.90;;;13.00;97.30;;;;;;5048462;28;20471;-89
2022/09/26 02:21:45;;;;;;;2.90;2.00;;;13.00;97.30;;;;;;5036858;28;20492;-89
2022/09/26 02:24:10;;;;;;;3.13;2.73;;;13.00;97.30;;;;;;5034471;28;20934;-88
2022/09/26 02:26:36;;;;;;;4.40;2.17;;;13.00;97.30;;;;;;5048648;28;20533;-89
2022/09/26 02:29:02;;;;;;;6.80;2.23;;;13.00;97.30;;;;;;5043212;28;20226;-88
2022/09/26 02:31:34;;;;;;;2.97;2.77;;;13.00;97.30;;;;;;5040995;28;20176;-89
2022/09/26 02:34:01;;;;;;;3.43;2.50;;;13.00;97.30;;;;;;5051207;28;20180;-89
2022/09/26 02:36:27;;;;;;;4.47;2.30;;;13.00;97.30;;;;;;5052812;28;20446;-90
2022/09/26 02:38:53;;;;;;;3.97;3.37;;;13.00;97.30;;;;;;5040045;28;20426;-89
2022/09/26 02:41:33;;;;;;;4.73;4.43;;;12.90;97.30;;;;;;5052598;28;20433;-89
2022/09/26 02:44:06;;;;;;;4.83;2.70;;;12.90;97.30;;;;;;5044180;28;20230;-89
2022/09/26 02:46:45;;;;;;;4.50;2.70;;;13.00;97.30;;;;;;5035989;28;20496;-89
2022/09/26 02:49:38;;;;;;;11.73;4.50;;;12.90;97.30;;;;;;5052754;28;20473;-89
2022/09/26 02:52:26;;;;;;;3.70;2.47;;;12.90;97.30;;;;;;5058285;28;20422;-89
2022/09/26 02:55:09;;;;;;;4.93;2.80;;;12.90;97.30;;;;;;5051128;28;20916;-90
2022/09/26 02:58:04;;;;;;;5.27;4.10;;;12.90;97.30;;;;;;5047002;28;20514;-89
2022/09/26 03:01:09;;;;;;;4.07;2.10;;;12.90;97.30;;;;;;5049634;28;20424;-89
2022/09/26 03:03:47;;;;;;;4.37;2.30;;;12.90;97.30;;;;;;5046800;28;20457;-89
2022/09/26 03:06:18;;;;;;;5.90;4.13;;;12.90;97.30;;;;;;5051532;28;20452;-89
2022/09/26 03:08:47;;;;;;;3.53;3.13;;;12.90;97.30;;;;;;5052445;28;20418;-90
2022/09/26 03:11:18;;;;;;;7.53;3.10;;;12.90;97.30;;;;;;5038429;28;20902;-90
2022/09/26 03:13:44;;;;;;;4.20;3.87;;;12.90;97.30;;;;;;5045701;28;20905;-89
2022/09/26 03:16:12;;;;;;;4.73;2.50;;;12.90;97.30;;;;;;5042866;28;20616;-89
2022/09/26 03:18:59;;;;;;;2.83;2.53;;;12.90;97.30;;;;;;5062895;28;20426;-90
2022/09/26 03:21:25;;;;;;;7.30;5.20;;;12.90;97.30;;;;;;5052030;28;20587;-89
2022/09/26 03:23:51;;;;;;;4.73;4.17;;;12.90;97.30;;;;;;5050773;28;20466;-89
2022/09/26 03:26:23;;;;;;;6.73;3.70;;;12.80;97.30;;;;;;5044530;28;20453;-90
2022/09/26 03:28:52;;;;;;;2.90;2.60;;;12.80;97.30;;;;;;5049480;28;20177;-88
2022/09/26 03:31:23;;;;;;;7.60;3.40;;;12.80;97.30;;;;;;5050579;28;20929;-88
2022/09/26 03:33:49;;;;;;;10.87;4.83;;;12.80;97.30;;;;;;5049825;28;20437;-89
2022/09/26 03:36:15;;;;;;;4.53;2.70;;;12.80;97.30;;;;;;5047713;28;21003;-88
2022/09/26 03:38:41;;;;;;;2.97;2.83;;;12.80;97.30;;;;;;5048767;28;20426;-89
2022/09/26 03:41:08;;;;;;;10.37;5.13;;;12.70;97.30;;;;;;5049526;28;20942;-89
2022/09/26 03:43:33;;;;;;;5.47;3.00;;;12.70;97.30;;;;;;5046798;28;20191;-88
2022/09/26 03:46:04;;;;;;;5.27;3.53;;;12.70;97.30;;;;;;5051100;28;20430;-89
2022/09/26 03:48:30;;;;;;;3.63;3.33;;;12.70;97.30;;;;;;5050163;28;20314;-89
2022/09/26 03:51:01;;;;;;;5.90;2.57;;;12.70;97.30;;;;;;5051393;28;20420;-88
2022/09/26 03:53:27;;;;;;;6.47;3.77;;;12.70;97.30;;;;;;5053698;28;20410;-88
2022/09/26 03:55:52;;;;;;;3.40;2.40;;;12.70;97.30;;;;;;5052252;28;20441;-89
2022/09/26 03:58:18;;;;;;;3.00;2.30;;;12.70;97.30;;;;;;5050170;28;20178;-87
2022/09/26 04:00:43;;;;;;;2.73;2.30;;;12.70;97.30;;;;;;5045871;28;20178;-89
2022/09/26 04:03:09;;;;;;;5.40;3.10;;;12.70;97.30;;;;;;5049488;28;20666;-88
2022/09/26 04:05:34;;;;;;;5.50;2.30;;;12.70;97.30;;;;;;5042861;28;20215;-89
2022/09/26 04:08:01;;;;;;;4.63;3.80;;;12.70;97.30;;;;;;5046752;28;20230;-88
2022/09/26 04:10:27;;;;;;;7.30;2.73;;;12.70;97.30;;;;;;5052893;28;20179;-88
2022/09/26 04:12:52;;;;;;;8.37;2.30;;;12.70;97.30;;;;;;5044118;28;20426;-89
2022/09/26 04:15:21;;;;;;;6.03;3.27;;;12.70;97.30;;;;;;5046715;28;20437;-87
2022/09/26 04:17:46;;;;;;;7.13;5.13;;;12.70;97.30;;;;;;5051756;28;20267;-87
2022/09/26 04:20:12;;;;;;;10.03;5.10;;;12.70;97.30;;;;;;5039206;28;20515;-87
2022/09/26 04:22:37;;;;;;;6.43;2.97;;;12.70;97.30;;;;;;5049218;28;20183;-87
2022/09/26 04:25:03;;;;;;;9.60;4.23;;;12.70;97.30;;;;;;5050800;28;20215;-88
2022/09/26 04:27:29;;;;;;;6.00;3.97;;;12.70;97.30;;;;;;5046872;28;20768;-87
2022/09/26 04:29:56;;;;;;;12.50;5.73;;;12.70;97.30;;;;;;5042857;28;20260;-87
2022/09/26 04:32:22;;;;;;;2.80;2.70;;;12.70;97.30;;;;;;5045883;28;20743;-90
2022/09/26 04:34:48;;;;;;;5.53;3.70;;;12.70;97.30;;;;;;5044503;28;20874;-87
2022/09/26 04:37:13;;;;;;;3.17;2.97;;;12.70;97.30;;;;;;5052016;28;20453;-87
2022/09/26 04:39:40;;;;;;;2.40;2.20;;;12.60;97.30;;;;;;5047599;28;20255;-88
2022/09/26 04:42:06;;;;;;;4.20;1.40;;;12.60;97.30;;;;;;5049228;28;20214;-87
2022/09/26 04:44:32;;;;;;;2.17;1.83;;;12.60;97.30;;;;;;5046112;28;20482;-88
2022/09/26 04:46:57;;;;;;;4.60;2.27;;;12.50;97.30;;;;;;5050477;28;20195;-88
2022/09/26 04:49:22;;;;;;;7.90;2.70;;;12.50;97.30;;;;;;5041533;28;20221;-88
2022/09/26 04:51:48;;;;;;;2.83;2.30;;;12.50;97.30;;;;;;5051651;28;20271;-88
2022/09/26 04:54:15;;;;;;;2.33;2.13;;;12.50;97.30;;;;;;5044977;28;20270;-87
2022/09/26 04:56:41;;;;;;;3.53;2.70;;;12.50;97.30;;;;;;5043213;28;20768;-87
2022/09/26 04:59:06;;;;;;;2.90;2.50;;;12.40;97.30;;;;;;5045112;28;20414;-88
2022/09/26 05:01:32;;;;;;;7.30;1.90;;;12.40;97.30;;;;;;5040323;28;20265;-89
2022/09/26 05:03:57;;;;;;;8.67;2.30;;;12.30;97.30;;;;;;5045252;28;20208;-88
2022/09/26 05:06:25;;;;;;;6.77;3.03;;;12.30;97.30;;;;;;5047375;28;20195;-88
2022/09/26 05:08:51;;;;;;;3.40;2.53;;;12.30;97.30;;;;;;5045313;28;20542;-88
2022/09/26 05:11:17;;;;;;;2.80;2.10;;;12.30;97.30;;;;;;5046562;28;20536;-88
2022/09/26 05:13:43;;;;;;;4.13;2.53;;;12.20;97.30;;;;;;5049194;28;20569;-88
2022/09/26 05:16:10;;;;;;;6.93;2.37;;;12.20;97.30;;;;;;5045987;28;20812;-88
2022/09/26 05:18:37;;;;;;;3.47;1.77;;;12.20;97.30;;;;;;5049835;28;20422;-88
2022/09/26 05:21:06;;;;;;;4.90;3.63;;;12.20;97.30;;;;;;5061575;28;20792;-87
2022/09/26 05:26:26;;;;;;;1.67;1.57;;;12.10;97.30;;;;;;5034629;28;20486;-89
2022/09/26 05:29:00;;;;;;;2.13;1.97;;;12.10;97.30;;;;;;5048032;28;20425;-89
2022/09/26 05:31:27;;;;;;;3.87;2.40;;;12.00;97.30;;;;;;5048719;28;20510;-88
2022/09/26 05:33:56;;;;;;;3.93;1.97;;;12.00;97.30;;;;;;5049935;28;20429;-89
2022/09/26 05:36:21;;;;;;;2.80;1.67;;;11.90;97.30;;;;;;5051211;28;20454;-89
2022/09/26 05:38:47;;;;;;;6.33;2.97;;;11.90;97.30;;;;;;5048668;28;20862;-88
2022/09/26 05:41:13;;;;;;;2.57;1.90;;;11.80;97.30;;;;;;5048988;28;20506;-88
2022/09/26 05:43:39;;;;;;;1.97;1.77;;;11.80;97.30;;;;;;5046618;28;20263;-89
2022/09/26 05:46:06;;;;;;;2.97;1.60;;;11.80;97.30;;;;;;5045497;28;20514;-88
2022/09/26 05:48:34;;;;;;;2.60;1.73;;;11.80;97.30;;;;;;5049475;28;20223;-88
2022/09/26 05:51:11;;;;;;;3.00;2.43;;;11.80;97.30;;;;;;5049155;28;20421;-88
2022/09/26 05:53:38;;;;;;;3.73;2.73;;;11.80;97.30;;;;;;5047018;28;20414;-86
2022/09/26 05:56:05;;;;;;;3.43;2.30;;;11.70;97.30;;;;;;5052553;28;20469;-87
2022/09/26 05:58:33;;;;;;;2.83;1.50;;;11.70;97.30;;;;;;5047126;28;20410;-88
2022/09/26 06:01:04;;;;;;;2.07;1.97;;;11.70;97.30;;;;;;5047642;28;20426;-86
2022/09/26 06:03:33;;;;;;;4.40;3.30;;;11.70;97.30;;;;;;5046137;28;20411;-87
2022/09/26 06:06:07;;;;;;;3.30;2.37;;;11.80;97.30;;;;;;5050558;28;20454;-86
2022/09/26 06:08:34;;;;;;;10.63;2.70;;;11.80;97.30;;;;;;5042638;28;20426;-87
2022/09/26 06:11:02;;;;;;;2.50;2.30;;;11.80;97.30;;;;;;5049954;28;20430;-87
2022/09/26 06:13:28;;;;;;;2.73;2.10;;;11.80;97.30;;;;;;5045390;28;20499;-87
2022/09/26 06:15:53;;;;;;;2.63;2.43;;;11.80;97.30;;;;;;5041010;28;21149;-87
2022/09/26 06:18:19;;;;;;;5.77;1.90;;;11.80;97.30;;;;;;5046311;28;20426;-87
2022/09/26 06:20:44;;;;;;;2.30;2.00;;;11.80;97.30;;;;;;5040221;28;20180;-88
2022/09/26 06:23:10;;;;;;;2.40;2.20;;;11.80;97.30;;;;;;5050230;28;20199;-87
2022/09/26 06:25:35;;;;;;;2.00;1.77;;;11.80;97.30;;;;;;5049984;28;20294;-87
2022/09/26 06:28:01;;;;;;;2.13;1.97;;;11.80;97.30;;;;;;5046644;28;20179;-88
2022/09/26 06:30:26;;;;;;;1.60;1.50;;;11.80;97.30;;;;;;5045017;28;20195;-88
2022/09/26 06:32:52;;;;;;;2.37;2.00;;;11.80;97.30;;;;;;5048535;28;20179;-87
2022/09/26 06:35:21;;;;;;;1.60;1.50;;;11.80;97.30;;;;;;5041315;28;20691;-88
2022/09/26 06:37:47;;;;;;;8.93;2.10;;;11.90;97.30;;;;;;5045850;28;20800;-86
2022/09/26 06:40:12;;;;;;;2.50;2.30;;;11.90;97.30;;;;;;5043857;28;20481;-87
2022/09/26 06:42:38;;;;;;;3.73;2.47;;;11.90;97.30;;;;;;5047049;28;21138;-90
2022/09/26 06:45:06;;;;;;;2.20;2.00;;;12.00;97.30;;;;;;5046797;28;20247;-89
2022/09/26 06:47:32;;;;;;;2.43;2.27;;;12.00;97.30;;;;;;5046069;28;20220;-90
2022/09/26 06:49:58;;;;;;;1.50;1.50;;;12.00;97.30;;;;;;5045733;28;20422;-90
2022/09/26 06:52:26;;;;;;;6.47;2.97;;;12.00;97.30;;;;;;5046506;28;20426;-90
2022/09/26 06:54:54;;;;;;;2.67;2.03;;;12.00;97.30;;;;;;5039326;28;20589;-88
2022/09/26 06:57:20;;;;;;;2.60;2.20;;;12.10;97.30;;;;;;5048093;28;20835;-90
2022/09/26 06:59:45;;;;;;;2.77;2.57;;;12.20;97.30;;;;;;5048809;28;20430;-90
2022/09/26 07:02:11;;;;;;;1.83;1.53;;;12.20;97.30;;;;;;5036043;28;20180;-90
2022/09/26 07:04:36;;;;;;;2.57;2.37;;;12.20;97.30;;;;;;5049655;28;20211;-92
2022/09/26 07:07:02;;;;;;;1.60;1.50;;;12.20;97.30;;;;;;5038317;28;20179;-88
2022/09/26 07:09:27;;;;;;;2.07;1.90;;;12.20;97.30;;;;;;5051048;28;20241;-90
2022/09/26 07:11:53;;;;;;;1.40;1.30;;;12.30;97.30;;;;;;5041293;28;20570;-89
2022/09/26 07:14:18;;;;;;;2.90;1.30;;;12.30;97.30;;;;;;5047987;28;20670;-90
2022/09/26 07:16:44;;;;;;;1.07;0.97;;;12.40;97.30;;;;;;5051076;28;20200;-88
2022/09/26 07:19:11;;;;;;;1.80;1.20;;;12.50;97.30;;;;;;5051575;28;20194;-89
2022/09/26 07:21:37;;;;;;;3.50;2.77;;;12.50;97.30;;;;;;5055102;28;20188;-89
2022/09/26 07:24:02;;;;;;;1.40;1.30;;;12.50;97.30;;;;;;5069431;28;20475;-88
2022/09/26 07:26:28;;;;;;;2.00;1.60;;;12.60;97.30;;;;;;5054308;28;20210;-89
2022/09/26 07:28:53;;;;;;;1.60;1.50;;;12.60;97.30;;;;;;5054867;28;20192;-89
2022/09/26 07:31:19;;;;;;;2.30;1.40;;;12.70;97.30;;;;;;5048103;28;20270;-90
2022/09/26 07:33:44;;;;;;;2.50;1.50;;;12.70;97.30;;;;;;5054622;28;20190;-89
2022/09/26 07:36:10;;;;;;;2.20;2.00;;;12.80;97.30;;;;;;5054058;28;20200;-89
2022/09/26 07:38:36;;;;;;;1.80;1.70;;;12.80;97.30;;;;;;5041327;28;20180;-90
2022/09/26 07:41:01;;;;;;;2.13;1.53;;;12.90;97.30;;;;;;5053624;28;20205;-90
2022/09/26 07:43:27;;;;;;;1.67;1.57;;;12.90;97.30;;;;;;5052168;28;20422;-89
2022/09/26 07:51:22;;;;;;;4.23;1.97;;;13.00;97.30;;;;;;5051645;28;20497;-88
2022/09/26 07:53:47;;;;;;;1.63;1.53;;;13.10;97.30;;;;;;5049730;28;20954;-89
2022/09/26 07:56:13;;;;;;;1.50;1.40;;;13.10;97.30;;;;;;5053566;28;20430;-89
2022/09/26 07:58:45;;;;;;;1.50;1.40;;;13.20;97.30;;;;;;5050939;28;20188;-90
2022/09/26 08:01:13;;;;;;;2.70;1.83;;;13.30;97.30;;;;;;5053807;28;20187;-87
2022/09/26 08:03:41;;;;;;;1.30;1.20;;;13.40;97.30;;;;;;5051253;28;20900;-88
2022/09/26 08:06:07;;;;;;;1.57;1.57;;;13.40;97.30;;;;;;5053012;28;20916;-90
2022/09/26 08:08:33;;;;;;;1.17;1.10;;;13.50;97.30;;;;;;5051816;28;20437;-89
2022/09/26 08:10:59;;;;;;;1.70;1.60;;;13.60;97.30;;;;;;5051353;28;20415;-90
2022/09/26 08:13:27;;;;;;;1.63;1.43;;;13.70;97.30;;;;;;5039585;28;20420;-90
2022/09/26 08:15:53;;;;;;;1.53;1.30;;;13.80;97.30;;;;;;5047625;28;20457;-91
2022/09/26 08:18:19;;;;;;;1.83;1.40;;;13.80;97.30;;;;;;5039144;28;20937;-91
2022/09/26 08:20:46;;;;;;;2.03;1.67;;;13.90;97.30;;;;;;5039259;28;20896;-90
2022/09/26 08:23:15;;;;;;;2.80;1.40;;;14.00;97.30;;;;;;5051600;28;20199;-92
2022/09/26 08:25:41;;;;;;;4.97;1.73;;;14.10;97.30;;;;;;5047230;28;20984;-92
2022/09/26 08:28:11;;;;;;;1.30;1.20;;;14.10;97.30;;;;;;5050147;28;20433;-90
2022/09/26 08:30:36;;;;;;;1.37;1.27;;;14.20;97.30;;;;;;5049280;28;20423;-90
2022/09/26 08:33:02;;;;;;;1.20;1.10;;;14.20;97.30;;;;;;5047406;28;20431;-89
2022/09/26 08:35:37;;;;;;;1.37;1.27;;;14.30;97.30;;;;;;5048723;28;20219;-90
2022/09/26 08:38:07;;;;;;;1.50;1.40;;;14.30;97.30;;;;;;5054441;28;20283;-91
2022/09/26 08:41:02;;;;;;;1.57;1.50;;;14.40;97.30;;;;;;5061281;28;20457;-91
2022/09/26 08:43:34;;;;;;;2.10;1.47;;;14.40;97.30;;;;;;5039572;28;20442;-91
2022/09/26 08:46:46;;;;;;;3.43;1.70;;;14.50;97.30;;;;;;5052298;28;20474;-89
2022/09/26 08:49:38;;;;;;;2.00;1.70;;;14.60;97.30;;;;;;5051535;28;21026;-90
2022/09/26 08:52:22;;;;;;;0.90;0.80;;;14.80;97.30;;;;;;5049322;28;20501;-92
2022/09/26 08:54:50;;;;;;;2.50;1.63;;;14.90;97.30;;;;;;5051773;28;20469;-90
2022/09/26 08:57:40;;;;;;;1.10;1.10;;;15.00;97.30;;;;;;5061243;28;20419;-90
2022/09/26 09:00:17;;;;;;;1.23;1.13;;;15.00;97.30;;;;;;5046802;28;20422;-90
2022/09/26 09:03:04;;;;;;;4.07;2.40;;;15.00;97.30;;;;;;5054070;28;20467;-90
2022/09/26 09:05:38;;;;;;;0.90;0.90;;;15.00;97.20;;;;;;5049887;28;20469;-91
2022/09/26 09:08:11;;;;;;;1.30;1.20;;;15.00;96.00;;;;;;5053093;28;20419;-90
2022/09/26 09:10:45;;;;;;;1.20;1.10;;;15.10;96.50;;;;;;5065130;28;20952;-89
2022/09/26 09:13:34;;;;;;;1.10;1.00;;;15.10;95.40;;;;;;5051369;28;20437;-90
2022/09/26 09:16:25;;;;;;;5.60;1.00;;;15.20;95.20;;;;;;5048730;28;20458;-90
2022/09/26 09:19:28;;;;;;;1.20;1.10;;;15.30;94.40;;;;;;5055490;28;20450;-90
2022/09/26 09:22:15;;;;;;;1.03;0.93;;;15.40;93.40;;;;;;5039646;28;20491;-90
2022/09/26 09:24:57;;;;;;;1.93;1.83;;;15.50;93.10;;;;;;5056410;28;20489;-94
2022/09/26 09:27:37;;;;;;;2.40;1.33;;;15.60;93.30;;;;;;5055819;28;20862;-91
2022/09/26 09:30:08;;;;;;;1.00;0.90;;;15.70;93.40;;;;;;5054123;28;20430;-90
2022/09/26 09:32:50;;;;;;;1.13;1.10;;;15.80;93.80;;;;;;5056839;28;20430;-91
2022/09/26 09:35:21;;;;;;;1.07;0.97;;;15.90;93.10;;;;;;5056395;28;20449;-90
2022/09/26 09:37:50;;;;;;;0.87;0.87;;;16.00;92.90;;;;;;5044979;28;20438;-91
2022/09/26 09:40:40;;;;;;;0.87;0.83;;;16.10;91.80;;;;;;5050032;28;20417;-90
2022/09/26 09:43:12;;;;;;;1.30;1.20;;;16.20;91.20;;;;;;5053640;28;20426;-90
2022/09/26 09:45:46;;;;;;;3.93;1.80;;;16.20;91.80;;;;;;5051820;28;20462;-90
2022/09/26 09:48:12;;;;;;;1.10;1.00;;;16.30;91.90;;;;;;5051304;28;21302;-90
2022/09/26 09:50:41;;;;;;;2.07;1.67;;;16.40;91.90;;;;;;5052198;28;20414;-89
2022/09/26 09:53:13;;;;;;;1.07;1.00;;;16.40;91.70;;;;;;5051415;28;20832;-90
2022/09/26 09:56:03;;;;;;;0.90;0.80;;;16.50;91.10;;;;;;5038514;28;21003;-90
2022/09/26 09:58:54;;;;;;;1.30;1.20;;;16.50;91.10;;;;;;5048278;28;20422;-89
2022/09/26 10:01:37;;;;;;;1.67;1.33;;;16.60;90.70;;;;;;5037492;28;20435;-90
2022/09/26 10:04:48;;;;;;;6.40;1.80;;;16.60;90.30;;;;;;5061660;28;20461;-89
2022/09/26 10:07:14;;;;;;;1.40;1.33;;;16.70;90.90;;;;;;5042492;28;20472;-90
2022/09/26 10:09:49;;;;;;;1.23;1.13;;;16.80;90.20;;;;;;5046487;28;20419;-88
2022/09/26 10:12:21;;;;;;;1.40;1.23;;;16.90;90.30;;;;;;5051388;28;20509;-90
2022/09/26 10:15:00;;;;;;;1.57;1.10;;;17.00;89.70;;;;;;5051316;28;20422;-90
2022/09/26 10:17:32;;;;;;;1.10;1.10;;;17.10;90.20;;;;;;5047987;28;20644;-89
2022/09/26 10:20:00;;;;;;;1.17;1.07;;;17.10;89.70;;;;;;5051168;28;20407;-88
2022/09/26 10:22:43;;;;;;;1.13;1.10;;;17.20;88.40;;;;;;5050335;28;20553;-89
2022/09/26 10:25:55;;;;;;;3.73;1.30;;;17.20;88.30;;;;;;5049924;28;20477;-89
2022/09/26 10:28:34;;;;;;;1.13;1.03;;;17.20;88.30;;;;;;5043165;28;20425;-90
2022/09/26 10:31:10;;;;;;;1.17;1.07;;;17.30;89.60;;;;;;5050580;28;20944;-90
2022/09/26 10:33:55;;;;;;;18.90;2.40;;;17.30;89.10;;;;;;5050925;28;21024;-90
2022/09/26 10:36:35;;;;;;;1.20;1.10;;;17.40;89.30;;;;;;5050143;28;20438;-89
2022/09/26 10:42:18;;;;;;;1.33;1.30;;;17.60;87.60;;;;;;5045022;28;20440;-89
2022/09/26 10:44:56;;;;;;;1.70;1.60;;;17.60;88.60;;;;;;5043041;28;20460;-89
2022/09/26 10:47:29;;;;;;;1.30;1.10;;;17.60;88.50;;;;;;5038662;28;20418;-89
2022/09/26 10:50:12;;;;;;;2.17;1.70;;;17.40;87.50;;;;;;5049596;28;21479;-89
2022/09/26 10:52:52;;;;;;;1.50;1.40;;;17.30;87.50;;;;;;5042789;28;20418;-89
2022/09/26 10:55:24;;;;;;;1.37;1.20;;;17.20;88.60;;;;;;5055838;28;20441;-88
2022/09/26 10:58:21;;;;;;;1.40;1.30;;;17.10;88.90;;;;;;5046515;28;20945;-89
2022/09/26 11:00:50;;;;;;;1.13;1.03;;;17.00;88.70;;;;;;5053947;28;20429;-88
2022/09/26 11:03:22;;;;;;;1.33;1.23;;;17.00;89.00;;;;;;5053673;28;20526;-89
2022/09/26 11:05:59;;;;;;;2.40;1.17;;;16.90;88.60;;;;;;5053928;28;20469;-88
2022/09/26 11:08:30;;;;;;;1.30;1.27;;;16.80;88.90;;;;;;5054551;28;20414;-87
2022/09/26 11:11:01;;;;;;;1.53;1.43;;;16.80;89.60;;;;;;5051669;28;20414;-89
2022/09/26 11:13:39;;;;;;;1.50;1.40;;;16.80;90.10;;;;;;5045393;28;20411;-90
2022/09/26 11:16:15;;;;;;;2.40;1.13;;;16.90;89.70;;;;;;5043917;28;20449;-88
2022/09/26 11:18:43;;;;;;;1.20;1.10;;;16.90;89.60;;;;;;5045101;28;20433;-90
2022/09/26 11:21:32;;;;;;;1.33;1.30;;;17.00;90.20;;;;;;5053665;28;20424;-89
2022/09/26 11:24:16;;;;;;;1.17;1.10;;;17.10;89.50;;;;;;5053244;28;20426;-89
2022/09/26 11:26:48;;;;;;;1.10;1.00;;;17.20;89.20;;;;;;5053060;28;20438;-88
2022/09/26 11:29:26;;;;;;;1.43;1.10;;;17.10;89.40;;;;;;5052354;28;20414;-89
2022/09/26 11:31:52;;;;;;;2.13;1.97;;;17.00;88.80;;;;;;5053081;28;20803;-89
2022/09/26 11:34:26;;;;;;;1.57;1.30;;;17.00;90.00;;;;;;5039857;28;20410;-89
2022/09/26 11:37:30;;;;;;;0.90;0.90;;;17.00;89.90;;;;;;5052103;28;20317;-88
2022/09/26 11:40:20;;;;;;;0.90;0.80;;;17.00;89.80;;;;;;5040255;28;20422;-89
2022/09/26 11:43:01;;;;;;;0.93;0.83;;;16.90;90.20;;;;;;5048230;28;20912;-88
2022/09/26 11:45:41;;;;;;;1.20;1.10;;;16.80;90.30;;;;;;5052560;28;20469;-89
2022/09/26 11:48:25;;;;;;;1.10;1.00;;;16.70;89.90;;;;;;5038427;28;20459;-87
2022/09/26 11:51:03;;;;;;;1.27;1.20;;;16.60;88.70;;;;;;5070369;28;20422;-89
2022/09/26 11:53:52;;;;;;;1.00;0.90;;;16.60;89.60;;;;;;5039518;28;20804;-91
2022/09/26 11:56:39;;;;;;;2.10;1.20;;;16.50;90.00;;;;;;5042758;28;20526;-87
2022/09/26 11:59:27;;;;;;;5.90;2.23;;;16.50;90.60;;;;;;5043176;28;20419;-87
2022/09/26 12:02:06;;;;;;;1.20;1.10;;;16.50;90.20;;;;;;5054592;28;20881;-88
2022/09/26 12:04:44;;;;;;;2.40;1.57;;;16.40;91.10;;;;;;5064844;28;20458;-88
2022/09/26 12:07:24;;;;;;;0.90;0.90;;;16.40;90.30;;;;;;5051820;28;20925;-89
2022/09/26 12:10:13;;;;;;;1.07;1.07;;;16.30;90.00;;;;;;5054202;28;20418;-90
2022/09/26 12:12:50;;;;;;;2.40;1.10;;;16.30;89.30;;;;;;5041401;28;20842;-89
2022/09/26 12:15:20;;;;;;;1.00;0.97;;;16.30;89.80;;;;;;5054519;28;20438;-89
2022/09/26 12:17:58;;;;;;;1.40;1.10;;;16.30;90.30;;;;;;5040013;28;20434;-88
2022/09/26 12:20:44;;;;;;;1.50;0.97;;;16.40;89.70;;;;;;5052004;28;20414;-88
2022/09/26 12:23:32;;;;;;;1.53;1.03;;;16.50;88.90;;;;;;5045011;28;20501;-86
2022/09/26 12:26:13;;;;;;;1.67;1.30;;;16.50;88.50;;;;;;5063737;28;21234;-89
2022/09/26 12:29:03;;;;;;;1.03;1.00;;;16.80;88.20;;;;;;5047518;28;20418;-89
2022/09/26 12:31:43;;;;;;;1.40;1.30;;;16.80;87.70;;;;;;5048662;28;20424;-89
2022/09/26 12:34:36;;;;;;;1.03;0.93;;;16.80;86.40;;;;;;5048534;28;20426;-89
2022/09/26 12:37:31;;;;;;;1.10;1.00;;;17.10;86.30;;;;;;5062336;28;20500;-89
2022/09/26 12:40:23;;;;;;;1.13;1.03;;;17.40;86.60;;;;;;5063163;28;20429;-90
2022/09/26 12:42:58;;;;;;;2.07;1.97;;;17.80;86.00;;;;;;5048770;28;20838;-91
2022/09/26 12:46:06;;;;;;;2.77;1.10;;;17.90;83.70;;;;;;5040818;28;20557;-89
2022/09/26 12:48:54;;;;;;;1.10;1.03;;;17.70;85.10;;;;;;5043119;28;20536;-89
2022/09/26 12:51:41;;;;;;;1.10;1.00;;;17.50;86.00;;;;;;5042859;28;20430;-89
2022/09/26 12:54:25;;;;;;;1.17;1.07;;;17.30;86.40;;;;;;5044883;28;20418;-88
2022/09/26 12:57:16;;;;;;;1.20;1.00;;;17.20;87.40;;;;;;5060217;28;20878;-88
2022/09/26 13:00:09;;;;;;;0.80;0.80;;;17.20;87.10;;;;;;5051377;28;20521;-90
2022/09/26 13:02:55;;;;;;;0.97;0.87;;;17.20;85.90;;;;;;5047418;28;20824;-86
2022/09/26 13:05:41;;;;;;;1.30;1.20;;;17.00;85.70;;;;;;5051837;28;20466;-89
2022/09/26 13:08:17;;;;;;;1.00;0.90;;;17.00;85.60;;;;;;5045697;28;20417;-89
2022/09/26 13:10:49;;;;;;;1.10;1.00;;;16.90;84.90;;;;;;5047215;28;20406;-88
2022/09/26 13:13:48;;;;;;;1.50;1.10;;;16.90;84.90;;;;;;5059881;28;20428;-88
2022/09/26 13:16:16;;;;;;;1.03;0.93;;;16.80;84.90;;;;;;5045532;28;20540;-88
2022/09/26 13:18:49;;;;;;;0.90;0.90;;;16.80;85.50;;;;;;5047159;28;20454;-88
2022/09/26 13:21:43;;;;;;;1.10;1.03;;;16.80;85.30;;;;;;5039619;28;20423;-89
2022/09/26 13:24:19;;;;;;;1.03;0.97;;;16.70;86.10;;;;;;5033516;28;20466;-90
2022/09/26 13:26:55;;;;;;;3.73;1.37;;;16.70;85.60;;;;;;5037513;28;20431;-89
2022/09/26 13:29:26;;;;;;;1.30;1.30;;;16.60;85.60;;;;;;5062608;28;20504;-88